createdAt,value
2024-04-25T00:09:00.212Z,0
2024-04-25T00:24:21.024Z,0
2024-04-25T00:39:41.839Z,0
2024-04-25T00:55:02.653Z,0
2024-04-25T01:10:23.467Z,0
2024-04-25T01:25:44.281Z,0
2024-04-25T01:41:05.102Z,0
2024-04-25T01:56:25.900Z,0
2024-04-25T02:11:46.736Z,0
2024-04-25T02:27:06.563Z,0
2024-04-25T02:42:27.376Z,0
2024-04-25T02:57:48.189Z,0
2024-04-25T03:13:09.003Z,0
2024-04-25T03:28:29.816Z,0
2024-04-25T03:43:50.586Z,0
2024-04-25T03:59:11.356Z,0
2024-04-25T04:14:32.126Z,5
2024-04-25T04:29:52.897Z,16
2024-04-25T04:45:13.667Z,22
2024-04-25T05:00:34.443Z,22
2024-04-25T05:15:55.211Z,56
2024-04-25T05:31:15.982Z,50
2024-04-25T05:46:35.767Z,73
2024-04-25T06:01:56.539Z,56
2024-04-25T06:17:17.310Z,67
2024-04-25T06:32:38.081Z,78
2024-04-25T06:47:58.857Z,78
2024-04-25T07:03:19.628Z,56
2024-04-25T07:18:40.398Z,151
2024-04-25T07:34:01.169Z,106
2024-04-25T07:49:21.939Z,185
2024-04-25T08:04:42.709Z,95
2024-04-25T08:20:03.480Z,123
2024-04-25T08:21:24.395Z,118
2024-04-25T08:22:45.316Z,112
2024-04-25T08:24:05.245Z,112
2024-04-25T08:25:26.161Z,101
2024-04-25T08:26:47.076Z,90
2024-04-25T08:28:07.992Z,101
2024-04-25T08:29:28.909Z,118
2024-04-25T08:30:49.824Z,123
2024-04-25T08:32:10.740Z,129
2024-04-25T08:33:31.653Z,140
2024-04-25T08:34:52.572Z,140
2024-04-25T08:37:34.398Z,157
2024-04-25T08:38:55.314Z,174
2024-04-25T08:40:16.230Z,185
2024-04-25T08:41:36.160Z,196
2024-04-25T08:42:57.075Z,270
2024-04-25T08:44:17.989Z,275
2024-04-25T08:45:38.904Z,326
2024-04-25T08:46:59.818Z,331
2024-04-25T08:48:20.734Z,258
2024-04-25T08:49:41.650Z,236
2024-04-25T08:51:02.570Z,230
2024-04-25T08:52:23.486Z,225
2024-04-25T08:53:44.396Z,225
2024-04-25T08:55:05.319Z,230
2024-04-25T08:56:26.234Z,225
2024-04-25T08:57:47.153Z,225
2024-04-25T08:59:07.084Z,225
2024-04-25T09:00:28.001Z,241
2024-04-25T09:01:48.916Z,253
2024-04-25T09:03:09.829Z,253
2024-04-25T09:04:30.745Z,247
2024-04-25T09:05:51.661Z,247
2024-04-25T09:07:12.576Z,253
2024-04-25T09:08:33.489Z,202
2024-04-25T09:09:54.405Z,191
2024-04-25T09:11:15.326Z,191
2024-04-25T09:12:36.247Z,163
2024-04-25T09:13:57.172Z,151
2024-04-25T09:15:18.088Z,241
2024-04-25T09:16:38.019Z,247
2024-04-25T09:17:58.935Z,241
2024-04-25T09:19:19.851Z,196
2024-04-25T09:20:40.766Z,230
2024-04-25T09:22:01.682Z,213
2024-04-25T09:23:22.598Z,213
2024-04-25T09:24:43.512Z,213
2024-04-25T09:26:04.437Z,213
2024-04-25T09:27:25.352Z,241
2024-04-25T09:28:46.268Z,219
2024-04-25T09:30:07.183Z,270
2024-04-25T09:31:28.099Z,292
2024-04-25T09:32:49.012Z,281
2024-04-25T09:34:08.943Z,196
2024-04-25T09:35:29.859Z,219
2024-04-25T09:36:50.774Z,258
2024-04-25T09:38:11.689Z,264
2024-04-25T09:39:32.603Z,270
2024-04-25T09:40:53.518Z,191
2024-04-25T09:42:14.434Z,281
2024-04-25T09:43:35.350Z,292
2024-04-25T09:44:56.263Z,275
2024-04-25T09:46:17.179Z,270
2024-04-25T09:47:38.094Z,258
2024-04-25T09:48:59.009Z,258
2024-04-25T09:50:19.925Z,286
2024-04-25T09:51:39.854Z,258
2024-04-25T09:53:00.770Z,264
2024-04-25T09:54:21.683Z,208
2024-04-25T09:55:42.599Z,241
2024-04-25T09:57:03.515Z,241
2024-04-25T09:58:24.430Z,241
2024-04-25T09:59:45.351Z,258
2024-04-25T10:01:06.267Z,275
2024-04-25T10:02:27.182Z,281
2024-04-25T10:03:48.098Z,303
2024-04-25T10:05:09.016Z,354
2024-04-25T10:06:29.931Z,360
2024-04-25T10:07:50.846Z,230
2024-04-25T10:09:10.778Z,219
2024-04-25T10:10:31.693Z,225
2024-04-25T10:11:52.614Z,196
2024-04-25T10:13:13.529Z,168
2024-04-25T10:14:34.442Z,174
2024-04-25T10:15:55.358Z,196
2024-04-25T10:17:16.273Z,230
2024-04-25T10:18:37.188Z,236
2024-04-25T10:19:58.104Z,225
2024-04-25T10:21:19.019Z,225
2024-04-25T10:22:39.935Z,247
2024-04-25T10:24:00.850Z,320
2024-04-25T10:25:21.765Z,337
2024-04-25T10:26:41.694Z,405
2024-04-25T10:28:02.610Z,427
2024-04-25T10:29:23.525Z,455
2024-04-25T10:30:44.440Z,331
2024-04-25T10:32:05.355Z,438
2024-04-25T10:33:26.270Z,354
2024-04-25T10:34:47.185Z,180
2024-04-25T10:36:08.101Z,202
2024-04-25T10:37:29.017Z,236
2024-04-25T10:38:49.932Z,258
2024-04-25T10:40:10.848Z,326
2024-04-25T10:41:31.763Z,489
2024-04-25T10:42:52.676Z,495
2024-04-25T10:44:12.615Z,444
2024-04-25T10:45:33.531Z,348
2024-04-25T10:46:54.445Z,433
2024-04-25T10:48:15.359Z,461
2024-04-25T10:49:36.274Z,478
2024-04-25T10:50:57.189Z,483
2024-04-25T10:52:18.105Z,303
2024-04-25T10:53:39.020Z,157
2024-04-25T10:54:59.935Z,151
2024-04-25T10:56:20.848Z,174
2024-04-25T10:57:41.763Z,202
2024-04-25T10:59:02.681Z,241
2024-04-25T11:00:23.597Z,292
2024-04-25T11:01:43.528Z,371
2024-04-25T11:03:04.443Z,731
2024-04-25T11:04:25.359Z,956
2024-04-25T11:05:46.274Z,697
2024-04-25T11:07:07.189Z,933
2024-04-25T11:08:28.104Z,1378
2024-04-25T11:09:49.019Z,1333
2024-04-25T11:11:09.938Z,1023
2024-04-25T11:12:30.854Z,860
2024-04-25T11:13:51.769Z,787
2024-04-25T11:15:12.685Z,787
2024-04-25T11:16:33.600Z,765
2024-04-25T11:17:54.515Z,815
2024-04-25T11:19:14.446Z,1501
2024-04-25T11:20:35.368Z,1440
2024-04-25T11:21:56.283Z,1243
2024-04-25T11:23:17.198Z,1068
2024-04-25T11:24:38.113Z,765
2024-04-25T11:25:59.029Z,568
2024-04-25T11:27:18.966Z,466
2024-04-25T11:28:39.881Z,832
2024-04-25T11:30:00.797Z,765
2024-04-25T11:31:21.708Z,388
2024-04-25T11:32:42.623Z,416
2024-04-25T11:34:03.538Z,393
2024-04-25T11:35:24.453Z,652
2024-04-25T11:36:45.369Z,607
2024-04-25T11:38:06.284Z,922
2024-04-25T11:39:27.200Z,742
2024-04-25T11:40:48.115Z,663
2024-04-25T11:42:09.030Z,793
2024-04-25T11:43:29.948Z,894
2024-04-25T11:44:49.880Z,1085
2024-04-25T11:46:10.795Z,1265
2024-04-25T11:47:31.708Z,1333
2024-04-25T11:48:52.620Z,1074
2024-04-25T11:50:13.538Z,765
2024-04-25T11:51:34.462Z,1248
2024-04-25T11:52:55.377Z,1338
2024-04-25T11:54:16.305Z,1350
2024-04-25T11:55:37.220Z,1153
2024-04-25T11:56:58.138Z,1130
2024-04-25T11:58:19.053Z,1091
2024-04-25T11:59:39.976Z,978
2024-04-25T12:01:00.891Z,894
2024-04-25T12:02:20.820Z,765
2024-04-25T12:03:41.732Z,990
2024-04-25T12:05:02.656Z,1693
2024-04-25T12:06:23.566Z,2036
2024-04-25T12:07:44.479Z,2086
2024-04-25T12:09:05.394Z,568
2024-04-25T12:10:26.309Z,376
2024-04-25T12:11:47.222Z,556
2024-04-25T12:13:08.137Z,1867
2024-04-25T12:14:29.052Z,1693
2024-04-25T12:15:49.967Z,1186
2024-04-25T12:17:10.886Z,1136
2024-04-25T12:18:31.801Z,1057
2024-04-25T12:19:51.730Z,1096
2024-04-25T12:21:12.645Z,1186
2024-04-25T12:22:33.554Z,675
2024-04-25T12:23:54.470Z,1147
2024-04-25T12:25:15.385Z,703
2024-04-25T12:26:36.309Z,1946
2024-04-25T12:27:57.224Z,2143
2024-04-25T12:29:18.135Z,371
2024-04-25T12:30:39.050Z,433
2024-04-25T12:31:59.965Z,326
2024-04-25T12:33:20.880Z,399
2024-04-25T12:34:41.795Z,714
2024-04-25T12:36:02.710Z,438
2024-04-25T12:37:22.641Z,1018
2024-04-25T12:38:43.556Z,1473
2024-04-25T12:40:04.472Z,1203
2024-04-25T12:41:25.384Z,1237
2024-04-25T12:42:46.299Z,320
2024-04-25T12:44:07.214Z,905
2024-04-25T12:45:28.129Z,978
2024-04-25T12:46:49.045Z,787
2024-04-25T12:48:09.960Z,2407
2024-04-25T12:49:30.872Z,286
2024-04-25T12:50:51.788Z,337
2024-04-25T12:52:12.691Z,2244
2024-04-25T12:53:33.618Z,2655
2024-04-25T12:54:53.550Z,1321
2024-04-25T12:56:14.465Z,376
2024-04-25T12:57:35.377Z,371
2024-04-25T12:58:56.294Z,1108
2024-04-25T13:00:17.209Z,1485
2024-04-25T13:01:38.128Z,1434
2024-04-25T13:02:59.043Z,1220
2024-04-25T13:04:19.966Z,1153
2024-04-25T13:05:40.881Z,1260
2024-04-25T13:07:01.794Z,371
2024-04-25T13:08:22.709Z,1648
2024-04-25T13:09:43.624Z,1845
2024-04-25T13:11:04.537Z,360
2024-04-25T13:12:24.468Z,410
2024-04-25T13:13:45.383Z,528
2024-04-25T13:15:06.302Z,2092
2024-04-25T13:16:27.217Z,2407
2024-04-25T13:17:48.130Z,2503
2024-04-25T13:19:09.045Z,2452
2024-04-25T13:20:29.960Z,2435
2024-04-25T13:21:50.876Z,2418
2024-04-25T13:23:11.796Z,1524
2024-04-25T13:24:32.711Z,455
2024-04-25T13:25:53.626Z,478
2024-04-25T13:27:14.539Z,1113
2024-04-25T13:28:35.460Z,472
2024-04-25T13:29:55.391Z,382
2024-04-25T13:31:16.309Z,500
2024-04-25T13:32:37.224Z,1102
2024-04-25T13:33:58.140Z,264
2024-04-25T13:35:19.055Z,213
2024-04-25T13:36:39.969Z,202
2024-04-25T13:38:00.883Z,202
2024-04-25T13:39:21.799Z,157
2024-04-25T13:40:42.710Z,118
2024-04-25T13:42:03.625Z,90
2024-04-25T13:43:24.540Z,78
2024-04-25T13:44:45.455Z,56
2024-04-25T13:46:06.370Z,50
2024-04-25T13:47:26.302Z,78
2024-04-25T13:48:47.217Z,101
2024-04-25T13:50:08.128Z,118
2024-04-25T13:51:29.040Z,135
2024-04-25T13:52:49.955Z,135
2024-04-25T13:54:10.870Z,118
2024-04-25T13:55:31.785Z,106
2024-04-25T13:56:52.701Z,90
2024-04-25T13:58:13.616Z,95
2024-04-25T13:59:34.531Z,118
2024-04-25T14:00:55.446Z,191
2024-04-25T14:02:16.370Z,596
2024-04-25T14:03:37.286Z,1873
2024-04-25T14:04:57.215Z,2013
2024-04-25T14:06:18.000Z,2137
2024-04-25T14:07:39.045Z,2109
2024-04-25T14:08:59.960Z,2047
2024-04-25T14:10:20.873Z,1783
2024-04-25T14:11:41.786Z,1029
2024-04-25T14:13:02.700Z,990
2024-04-25T14:14:23.613Z,1119
2024-04-25T14:15:44.528Z,1057
2024-04-25T14:17:05.443Z,1080
2024-04-25T14:18:26.356Z,1125
2024-04-25T14:19:47.277Z,1282
2024-04-25T14:21:08.190Z,1659
2024-04-25T14:22:28.119Z,1816
2024-04-25T14:23:49.035Z,1991
2024-04-25T14:25:09.950Z,1665
2024-04-25T14:26:30.863Z,916
2024-04-25T14:27:51.778Z,1051
2024-04-25T14:29:12.693Z,1321
2024-04-25T14:30:33.600Z,978
2024-04-25T14:31:54.523Z,1085
2024-04-25T14:33:15.438Z,961
2024-04-25T14:34:36.353Z,1012
2024-04-25T14:35:57.268Z,1378
2024-04-25T14:37:18.183Z,1648
2024-04-25T14:38:39.098Z,787
2024-04-25T14:39:59.029Z,686
2024-04-25T14:41:19.944Z,495
2024-04-25T14:42:40.859Z,556
2024-04-25T14:44:01.775Z,703
2024-04-25T14:45:22.688Z,1080
2024-04-25T14:46:43.600Z,1338
2024-04-25T14:48:04.515Z,1288
2024-04-25T14:49:25.428Z,1248
2024-04-25T14:50:46.343Z,1040
2024-04-25T14:52:07.258Z,1141
2024-04-25T14:53:28.176Z,686
2024-04-25T14:54:49.098Z,1001
2024-04-25T14:56:10.007Z,742
2024-04-25T14:57:29.938Z,1366
2024-04-25T14:58:50.853Z,1485
2024-04-25T15:00:11.768Z,916
2024-04-25T15:01:32.681Z,618
2024-04-25T15:04:14.515Z,393
2024-04-25T15:05:35.429Z,376
2024-04-25T15:06:56.345Z,416
2024-04-25T15:08:17.265Z,461
2024-04-25T15:09:38.180Z,360
2024-04-25T15:10:59.094Z,354
2024-04-25T15:12:20.009Z,315
2024-04-25T15:13:40.934Z,405
2024-04-25T15:15:00.862Z,444
2024-04-25T15:16:21.777Z,433
2024-04-25T15:17:42.690Z,365
2024-04-25T15:19:03.615Z,320
2024-04-25T15:20:24.530Z,393
2024-04-25T15:21:45.445Z,466
2024-04-25T15:23:06.360Z,517
2024-04-25T15:24:27.276Z,185
2024-04-25T15:25:48.192Z,191
2024-04-25T15:27:09.104Z,163
2024-04-25T15:28:29.925Z,135
2024-04-25T15:29:50.834Z,123
2024-04-25T15:31:11.846Z,118
2024-04-25T15:32:31.777Z,78
2024-04-25T15:33:52.692Z,73
2024-04-25T15:35:13.612Z,67
2024-04-25T15:36:34.527Z,56
2024-04-25T15:37:55.443Z,50
2024-04-25T15:39:16.358Z,45
2024-04-25T15:40:37.273Z,45
2024-04-25T15:41:58.188Z,50
2024-04-25T15:43:19.111Z,56
2024-04-25T15:44:40.026Z,101
2024-04-25T15:46:00.941Z,78
2024-04-25T15:47:21.856Z,78
2024-04-25T15:48:42.769Z,78
2024-04-25T15:50:02.700Z,95
2024-04-25T15:51:23.615Z,112
2024-04-25T15:52:44.530Z,112
2024-04-25T15:54:05.446Z,112
2024-04-25T15:55:26.361Z,112
2024-04-25T15:56:47.274Z,118
2024-04-25T15:58:07.210Z,151
2024-04-25T15:59:28.125Z,174
2024-04-25T16:00:49.040Z,191
2024-04-25T16:02:09.955Z,196
2024-04-25T16:03:30.871Z,196
2024-04-25T16:04:51.786Z,196
2024-04-25T16:06:12.701Z,191
2024-04-25T16:07:33.616Z,185
2024-04-25T16:08:54.531Z,174
2024-04-25T16:10:15.453Z,168
2024-04-25T16:11:36.375Z,163
2024-04-25T16:12:57.291Z,163
2024-04-25T16:14:18.211Z,163
2024-04-25T16:15:38.142Z,163
2024-04-25T16:16:59.055Z,163
2024-04-25T16:18:19.878Z,157
2024-04-25T16:19:40.884Z,151
2024-04-25T16:21:01.800Z,146
2024-04-25T16:22:22.715Z,140
2024-04-25T16:23:43.630Z,129
2024-04-25T16:25:04.546Z,118
2024-04-25T16:26:25.461Z,118
2024-04-25T16:27:46.376Z,123
2024-04-25T16:29:07.292Z,129
2024-04-25T16:30:28.107Z,129
2024-04-25T16:31:49.120Z,129
2024-04-25T16:33:09.049Z,123
2024-04-25T16:34:29.962Z,123
2024-04-25T16:35:50.877Z,129
2024-04-25T16:37:11.792Z,129
2024-04-25T16:38:32.708Z,129
2024-04-25T16:39:53.623Z,135
2024-04-25T16:41:14.534Z,135
2024-04-25T16:42:35.449Z,129
2024-04-25T16:43:56.364Z,129
2024-04-25T16:45:17.279Z,123
2024-04-25T16:46:38.193Z,118
2024-04-25T16:47:59.117Z,118
2024-04-25T16:49:20.032Z,112
2024-04-25T16:50:39.964Z,101
2024-04-25T16:52:00.877Z,101
2024-04-25T16:53:21.792Z,95
2024-04-25T16:54:42.707Z,84
2024-04-25T16:56:03.622Z,73
2024-04-25T16:57:24.538Z,67
2024-04-25T16:58:45.453Z,61
2024-04-25T17:00:06.374Z,61
2024-04-25T17:01:27.289Z,67
2024-04-25T17:02:48.202Z,67
2024-04-25T17:04:09.116Z,56
2024-04-25T17:05:30.029Z,50
2024-04-25T17:06:50.944Z,50
2024-04-25T17:08:10.883Z,45
2024-04-25T17:09:31.798Z,39
2024-04-25T17:10:52.714Z,39
2024-04-25T17:12:13.629Z,33
2024-04-25T17:13:34.544Z,33
2024-04-25T17:14:55.457Z,28
2024-04-25T17:16:16.371Z,28
2024-04-25T17:17:37.284Z,28
2024-04-25T17:18:58.197Z,22
2024-04-25T17:20:19.117Z,22
2024-04-25T17:21:40.030Z,22
2024-04-25T17:23:00.945Z,22
2024-04-25T17:24:21.861Z,16
2024-04-25T17:25:41.790Z,16
2024-04-25T17:27:02.705Z,16
2024-04-25T17:28:23.620Z,16
2024-04-25T17:29:44.535Z,16
2024-04-25T17:31:05.448Z,22
2024-04-25T17:32:26.362Z,22
2024-04-25T17:33:47.275Z,22
2024-04-25T17:35:08.190Z,22
2024-04-25T17:36:29.103Z,22
2024-04-25T17:37:50.022Z,22
2024-04-25T17:39:10.935Z,16
2024-04-25T17:40:31.850Z,16
2024-04-25T17:41:52.765Z,16
2024-04-25T17:43:12.697Z,16
2024-04-25T17:44:33.612Z,11
2024-04-25T17:45:54.527Z,11
2024-04-25T17:47:15.442Z,11
2024-04-25T17:48:36.358Z,11
2024-04-25T17:49:57.273Z,11
2024-04-25T17:51:18.189Z,11
2024-04-25T17:52:39.104Z,5
2024-04-25T17:54:00.019Z,5
2024-04-25T17:55:20.934Z,5
2024-04-25T17:56:41.847Z,5
2024-04-25T17:58:02.762Z,5
2024-04-25T17:59:23.678Z,5
2024-04-25T18:00:43.607Z,5
2024-04-25T18:02:04.520Z,5
2024-04-25T18:03:25.437Z,5
2024-04-25T18:04:46.352Z,5
2024-04-25T18:06:07.269Z,5
2024-04-25T18:07:28.086Z,5
2024-04-25T18:08:49.099Z,5
2024-04-25T18:10:10.015Z,5
2024-04-25T18:11:30.930Z,5
2024-04-25T18:12:51.845Z,0
2024-04-25T18:14:12.761Z,0
2024-04-25T18:15:33.677Z,0
2024-04-25T18:16:54.590Z,0
2024-04-25T18:18:14.519Z,0
2024-04-25T18:19:35.434Z,0
2024-04-25T18:20:56.348Z,0
2024-04-25T18:22:17.263Z,0
2024-04-25T18:23:38.178Z,0
2024-04-25T18:24:59.094Z,0
2024-04-25T18:26:20.009Z,0
2024-04-25T18:27:40.925Z,0
2024-04-25T18:29:01.840Z,0
2024-04-25T18:30:22.755Z,0
2024-04-25T18:31:43.671Z,0
2024-04-25T18:33:04.584Z,0
2024-04-25T18:34:25.499Z,0
2024-04-25T18:35:45.427Z,0
2024-04-25T18:37:06.342Z,0
2024-04-25T18:38:27.256Z,0
2024-04-25T18:39:48.064Z,0
2024-04-25T18:41:09.082Z,0
2024-04-25T18:42:30.037Z,0
2024-04-25T18:43:50.950Z,0
2024-04-25T18:45:11.871Z,0
2024-04-25T18:46:32.784Z,0
2024-04-25T18:47:53.698Z,0
2024-04-25T18:49:14.611Z,0
2024-04-25T18:50:35.567Z,0
2024-04-25T18:51:56.481Z,0
2024-04-25T18:53:16.410Z,0
2024-04-25T18:54:37.323Z,0
2024-04-25T18:55:58.278Z,0
2024-04-25T18:57:19.232Z,0
2024-04-25T18:58:40.191Z,0
2024-04-25T19:00:01.145Z,0
2024-04-25T19:01:22.102Z,0
2024-04-25T19:02:43.058Z,0
2024-04-25T19:04:03.925Z,0
2024-04-25T19:05:24.971Z,0
2024-04-25T19:06:45.927Z,0
2024-04-25T19:08:06.883Z,0
2024-04-25T19:09:27.839Z,0
2024-04-25T19:10:47.811Z,0
2024-04-25T19:12:08.766Z,0
2024-04-25T19:13:29.722Z,0
2024-04-25T19:14:50.678Z,0
2024-04-25T19:16:11.637Z,0
2024-04-25T19:17:32.593Z,0
2024-04-25T19:18:53.549Z,0
2024-04-25T19:20:14.505Z,0
2024-04-25T19:21:35.461Z,0
2024-04-25T19:22:56.417Z,0
2024-04-25T19:24:17.374Z,0
2024-04-25T19:25:38.333Z,0
2024-04-25T19:26:59.289Z,0
2024-04-25T19:28:19.261Z,0
2024-04-25T19:29:40.217Z,0
2024-04-25T19:31:01.174Z,0
2024-04-25T19:32:22.130Z,0
2024-04-25T19:33:43.086Z,0
2024-04-25T19:35:04.046Z,0
2024-04-25T19:36:25.002Z,0
2024-04-25T19:37:45.957Z,0
2024-04-25T19:39:06.911Z,0
2024-04-25T19:40:27.867Z,0
2024-04-25T19:41:48.822Z,0
2024-04-25T19:43:09.778Z,0
2024-04-25T19:44:30.734Z,0
2024-04-25T19:45:50.705Z,0
2024-04-25T19:47:11.661Z,0
2024-04-25T19:48:32.618Z,0
2024-04-25T19:49:53.574Z,0
2024-04-25T19:51:14.530Z,0
2024-04-25T19:52:35.397Z,0
2024-04-25T19:53:56.442Z,0
2024-04-25T19:55:17.400Z,0
2024-04-25T19:56:38.356Z,0
2024-04-25T19:57:59.312Z,0
2024-04-25T19:59:20.269Z,0
2024-04-25T20:00:41.225Z,0
2024-04-25T20:02:02.183Z,0
2024-04-25T20:03:22.155Z,0
2024-04-25T20:04:43.112Z,0
2024-04-25T20:06:04.068Z,0
2024-04-25T20:07:25.024Z,0
2024-04-25T20:08:45.981Z,0
2024-04-25T20:10:06.944Z,0
2024-04-25T20:11:27.904Z,0
2024-04-25T20:12:48.860Z,0
2024-04-25T20:14:09.816Z,0
2024-04-25T20:15:30.773Z,0
2024-04-25T20:16:51.729Z,0
2024-04-25T20:18:12.685Z,0
2024-04-25T20:19:33.641Z,0
2024-04-25T20:20:53.616Z,0
2024-04-25T20:22:14.572Z,0
2024-04-25T20:23:35.529Z,0
2024-04-25T20:24:56.483Z,0
2024-04-25T20:26:17.440Z,0
2024-04-25T20:27:38.400Z,0
2024-04-25T20:28:58.378Z,0
2024-04-25T20:30:19.334Z,0
2024-04-25T20:45:40.145Z,0
2024-04-25T21:01:00.957Z,0
2024-04-25T21:16:21.770Z,0
2024-04-25T21:31:42.582Z,0
2024-04-25T21:47:03.395Z,0
2024-04-25T22:02:24.207Z,0
2024-04-25T22:17:45.020Z,0
2024-04-25T22:33:05.833Z,0
2024-04-25T22:48:26.647Z,0
2024-04-25T23:03:47.462Z,0
2024-04-25T23:19:08.276Z,0
2024-04-25T23:34:28.103Z,0
2024-04-25T23:49:48.917Z,0
